Time;durP1;ratioP1;P1;durP2;ratioP2;P2;SDS_P1;SDS_P2;PMS_P1;PMS_P2;Temp;Humidity;BMP_temperature;BMP_pressure;BME280_temperature;BME280_humidity;BME280_pressure;Samples;Min_cycle;Max_cycle;Signal;HPM_P1;HPM_P2
2022/04/07 00:00:52;;;;;;;4.20;2.38;;;;;;;;;;5079683;28;20096;-82
2022/04/07 00:03:18;;;;;;;4.30;2.20;;;;;;;;;;5080206;28;20070;-82
2022/04/07 00:05:44;;;;;;;3.47;1.73;;;;;;;;;;5081076;28;20032;-81
2022/04/07 00:08:10;;;;;;;4.63;2.15;;;;;;;;;;5100242;28;20047;-82
2022/04/07 00:10:37;;;;;;;4.60;1.67;;;;;;;;;;5090265;28;20038;-81
2022/04/07 00:13:03;;;;;;;4.70;1.67;;;;;;;;;;5078983;28;20017;-82
2022/04/07 00:15:29;;;;;;;3.10;1.23;;;;;;;;;;5078467;28;20096;-81
2022/04/07 00:17:56;;;;;;;3.28;1.50;;;;;;;;;;5079232;28;20490;-82
2022/04/07 00:20:23;;;;;;;3.15;1.30;;;;;;;;;;5080063;28;20079;-81
2022/04/07 00:22:49;;;;;;;3.42;1.30;;;;;;;;;;5082911;28;20028;-81
2022/04/07 00:25:15;;;;;;;2.22;1.10;;;;;;;;;;5080246;28;20055;-82
2022/04/07 00:27:41;;;;;;;3.05;1.23;;;;;;;;;;5079929;28;20029;-82
2022/04/07 00:30:09;;;;;;;2.83;1.10;;;;;;;;;;5080294;28;20029;-82
2022/04/07 00:32:40;;;;;;;3.60;1.95;;;;;;;;;;5077365;28;20024;-82
2022/04/07 00:35:08;;;;;;;3.63;1.30;;;;;;;;;;5078974;28;20025;-80
2022/04/07 00:37:34;;;;;;;3.55;1.20;;;;;;;;;;5086943;28;20039;-82
2022/04/07 00:40:00;;;;;;;3.20;1.10;;;;;;;;;;5099577;28;20109;-82
2022/04/07 00:42:26;;;;;;;2.40;1.10;;;;;;;;;;5080464;28;20104;-82
2022/04/07 00:44:52;;;;;;;3.47;1.23;;;;;;;;;;5080857;28;20505;-83
2022/04/07 00:47:19;;;;;;;4.35;1.40;;;;;;;;;;5078648;28;20059;-83
2022/04/07 00:49:45;;;;;;;2.00;0.95;;;;;;;;;;5078006;28;20017;-83
2022/04/07 00:52:12;;;;;;;3.08;1.20;;;;;;;;;;5077464;28;20024;-83
2022/04/07 00:54:39;;;;;;;3.10;1.30;;;;;;;;;;5074820;28;20036;-82
2022/04/07 00:57:06;;;;;;;2.63;1.02;;;;;;;;;;5078020;28;20020;-82
2022/04/07 00:59:34;;;;;;;2.95;1.23;;;;;;;;;;5076425;28;20020;-83
2022/04/07 01:02:01;;;;;;;3.00;1.10;;;;;;;;;;5076842;28;20044;-84
2022/04/07 01:04:27;;;;;;;2.92;1.25;;;;;;;;;;5080987;28;20044;-83
2022/04/07 01:06:53;;;;;;;2.90;1.08;;;;;;;;;;5079054;28;20724;-82
2022/04/07 01:09:20;;;;;;;2.75;1.23;;;;;;;;;;5078751;28;20331;-82
2022/04/07 01:11:46;;;;;;;2.75;1.20;;;;;;;;;;5077432;28;20040;-81
2022/04/07 01:14:12;;;;;;;2.85;1.10;;;;;;;;;;5076171;28;20497;-82
2022/04/07 01:16:39;;;;;;;2.97;1.30;;;;;;;;;;5078713;28;20039;-82
2022/04/07 01:19:05;;;;;;;3.92;1.27;;;;;;;;;;5078914;28;20021;-81
2022/04/07 01:21:32;;;;;;;3.90;1.45;;;;;;;;;;5076224;28;20064;-82
2022/04/07 01:24:03;;;;;;;3.22;1.33;;;;;;;;;;5079624;28;20028;-81
2022/04/07 01:26:31;;;;;;;4.53;1.45;;;;;;;;;;5077644;28;20029;-83
2022/04/07 01:28:58;;;;;;;3.50;1.30;;;;;;;;;;5076872;28;20025;-82
2022/04/07 01:31:24;;;;;;;3.15;1.13;;;;;;;;;;5077183;28;20020;-82
2022/04/07 01:33:51;;;;;;;3.13;1.10;;;;;;;;;;5076358;28;20104;-83
2022/04/07 01:36:17;;;;;;;2.60;1.08;;;;;;;;;;5081628;28;20521;-82
2022/04/07 01:38:44;;;;;;;2.58;0.90;;;;;;;;;;5076770;28;20039;-81
2022/04/07 01:41:10;;;;;;;3.20;1.00;;;;;;;;;;5079491;28;20145;-82
2022/04/07 01:43:36;;;;;;;3.22;1.05;;;;;;;;;;5078073;28;20029;-82
2022/04/07 01:46:03;;;;;;;2.55;1.02;;;;;;;;;;5078490;28;20036;-81
2022/04/07 01:48:29;;;;;;;3.17;1.20;;;;;;;;;;5080312;28;20556;-83
2022/04/07 01:50:57;;;;;;;3.10;0.82;;;;;;;;;;5080764;28;20554;-82
2022/04/07 01:53:23;;;;;;;1.55;0.77;;;;;;;;;;5080843;28;20067;-81
2022/04/07 01:55:49;;;;;;;3.38;1.00;;;;;;;;;;5096865;28;20056;-83
2022/04/07 01:58:16;;;;;;;2.15;0.80;;;;;;;;;;5084366;28;20028;-82
2022/04/07 02:00:42;;;;;;;2.17;0.80;;;;;;;;;;5082530;28;20515;-82
2022/04/07 02:03:11;;;;;;;2.03;0.70;;;;;;;;;;5082322;28;20043;-84
2022/04/07 02:05:37;;;;;;;2.10;0.70;;;;;;;;;;5096840;28;20034;-83
2022/04/07 02:08:04;;;;;;;1.92;0.70;;;;;;;;;;5083974;28;20095;-83
2022/04/07 02:10:32;;;;;;;1.88;0.70;;;;;;;;;;5081015;28;20031;-81
2022/04/07 02:12:58;;;;;;;1.50;0.60;;;;;;;;;;5080882;28;20033;-83
2022/04/07 02:15:26;;;;;;;1.92;0.70;;;;;;;;;;5081232;28;20063;-81
2022/04/07 02:17:52;;;;;;;2.05;0.68;;;;;;;;;;5082299;28;20024;-82
2022/04/07 02:20:18;;;;;;;1.15;0.50;;;;;;;;;;5082190;28;20080;-81
2022/04/07 02:22:44;;;;;;;2.20;0.80;;;;;;;;;;5082051;28;20089;-81
2022/04/07 02:25:11;;;;;;;1.52;0.70;;;;;;;;;;5081536;28;20428;-82
2022/04/07 02:27:37;;;;;;;1.35;0.60;;;;;;;;;;5082069;28;20047;-82
2022/04/07 02:30:08;;;;;;;2.17;0.63;;;;;;;;;;5080574;28;20050;-79
2022/04/07 02:32:34;;;;;;;2.15;0.80;;;;;;;;;;5081634;28;20050;-81
2022/04/07 02:35:00;;;;;;;1.40;0.60;;;;;;;;;;5080732;28;20035;-81
2022/04/07 02:37:26;;;;;;;1.20;0.50;;;;;;;;;;5079302;28;20398;-81
2022/04/07 02:39:55;;;;;;;1.70;0.63;;;;;;;;;;5081269;28;20024;-82
2022/04/07 02:42:21;;;;;;;1.98;0.60;;;;;;;;;;5081371;28;20051;-82
2022/04/07 02:44:47;;;;;;;1.65;0.50;;;;;;;;;;5081755;28;20021;-81
2022/04/07 02:47:13;;;;;;;1.58;0.68;;;;;;;;;;5085256;28;20441;-81
2022/04/07 02:49:39;;;;;;;1.92;0.70;;;;;;;;;;5080133;28;20028;-81
2022/04/07 02:52:08;;;;;;;2.17;0.80;;;;;;;;;;5080972;28;20052;-81
2022/04/07 02:54:34;;;;;;;1.88;0.60;;;;;;;;;;5079182;28;20029;-83
2022/04/07 02:57:00;;;;;;;1.85;0.68;;;;;;;;;;5078260;28;20020;-82
2022/04/07 02:59:26;;;;;;;2.83;0.80;;;;;;;;;;5080543;28;20386;-83
2022/04/07 03:01:53;;;;;;;1.73;0.75;;;;;;;;;;5078286;28;20047;-82
2022/04/07 03:04:19;;;;;;;2.45;0.85;;;;;;;;;;5078586;28;20074;-83
2022/04/07 03:06:45;;;;;;;3.40;1.23;;;;;;;;;;5081050;28;20512;-83
2022/04/07 03:09:11;;;;;;;1.77;0.70;;;;;;;;;;5079534;28;20028;-82
2022/04/07 03:11:37;;;;;;;2.22;0.82;;;;;;;;;;5079660;28;20024;-81
2022/04/07 03:14:03;;;;;;;2.65;1.02;;;;;;;;;;5079922;28;20029;-81
2022/04/07 03:16:29;;;;;;;2.53;0.90;;;;;;;;;;5078212;28;20028;-81
2022/04/07 03:18:55;;;;;;;2.60;1.10;;;;;;;;;;5099657;28;20027;-83
2022/04/07 03:21:21;;;;;;;2.95;1.15;;;;;;;;;;5098160;28;20024;-82
2022/04/07 03:23:47;;;;;;;2.67;0.93;;;;;;;;;;5080054;28;20056;-84
2022/04/07 03:26:13;;;;;;;3.20;1.13;;;;;;;;;;5066670;28;20043;-83
2022/04/07 03:28:39;;;;;;;3.25;1.25;;;;;;;;;;5085717;28;20024;-84
2022/04/07 03:31:05;;;;;;;4.00;1.40;;;;;;;;;;5080668;28;20024;-82
2022/04/07 03:33:31;;;;;;;2.78;1.25;;;;;;;;;;5077799;28;20035;-81
2022/04/07 03:35:58;;;;;;;3.47;1.35;;;;;;;;;;5082731;28;20032;-81
2022/04/07 03:38:24;;;;;;;3.35;1.15;;;;;;;;;;5099512;28;20035;-82
2022/04/07 03:40:50;;;;;;;3.90;1.35;;;;;;;;;;5094391;28;20113;-83
2022/04/07 03:43:16;;;;;;;3.45;1.40;;;;;;;;;;5078696;28;20027;-80
2022/04/07 03:45:42;;;;;;;3.28;1.20;;;;;;;;;;5077172;28;20028;-83
2022/04/07 03:48:08;;;;;;;3.15;1.20;;;;;;;;;;5079631;28;20021;-81
2022/04/07 03:50:34;;;;;;;3.10;1.25;;;;;;;;;;5079705;28;20088;-82
2022/04/07 03:53:00;;;;;;;3.22;1.20;;;;;;;;;;5081068;28;20571;-81
2022/04/07 03:55:26;;;;;;;2.83;1.20;;;;;;;;;;5079318;28;20102;-82
2022/04/07 03:57:52;;;;;;;3.15;0.93;;;;;;;;;;5079882;28;20112;-82
2022/04/07 04:00:19;;;;;;;3.17;1.13;;;;;;;;;;5081307;28;20024;-81
2022/04/07 04:02:45;;;;;;;3.05;1.20;;;;;;;;;;5081152;28;20032;-81
2022/04/07 04:05:11;;;;;;;4.90;1.63;;;;;;;;;;5079161;28;20028;-81
2022/04/07 04:07:38;;;;;;;2.63;0.95;;;;;;;;;;5074960;28;20024;-80
2022/04/07 04:10:05;;;;;;;2.90;1.30;;;;;;;;;;5085866;28;20012;-79
2022/04/07 04:12:31;;;;;;;3.17;1.05;;;;;;;;;;5084026;28;20119;-81
2022/04/07 04:14:57;;;;;;;3.40;1.20;;;;;;;;;;5082268;28;20029;-83
2022/04/07 04:17:27;;;;;;;3.30;1.30;;;;;;;;;;5079524;28;20099;-84
2022/04/07 04:19:53;;;;;;;3.70;1.30;;;;;;;;;;5079944;28;20482;-79
2022/04/07 04:22:19;;;;;;;3.20;1.30;;;;;;;;;;5087735;28;20035;-79
2022/04/07 04:24:45;;;;;;;6.55;1.70;;;;;;;;;;5085474;28;20050;-81
2022/04/07 04:27:11;;;;;;;3.92;1.30;;;;;;;;;;5078543;28;20074;-81
2022/04/07 04:29:39;;;;;;;7.30;1.40;;;;;;;;;;5077418;28;20032;-81
2022/04/07 04:32:05;;;;;;;3.03;1.10;;;;;;;;;;5078254;28;20028;-80
2022/04/07 04:34:31;;;;;;;3.35;1.10;;;;;;;;;;5079207;28;20031;-82
2022/04/07 04:36:58;;;;;;;3.30;1.52;;;;;;;;;;5079013;28;20111;-82
2022/04/07 04:39:24;;;;;;;4.05;1.88;;;;;;;;;;5075372;28;20036;-81
2022/04/07 04:41:50;;;;;;;3.90;1.75;;;;;;;;;;5075481;28;20609;-83
2022/04/07 04:44:16;;;;;;;4.55;1.80;;;;;;;;;;5075575;28;20028;-82
2022/04/07 04:46:42;;;;;;;4.00;1.20;;;;;;;;;;5075432;28;20044;-82
2022/04/07 04:49:08;;;;;;;3.17;1.10;;;;;;;;;;5075944;28;20028;-82
2022/04/07 04:51:34;;;;;;;2.78;1.15;;;;;;;;;;5075121;28;20035;-82
2022/04/07 04:54:00;;;;;;;3.33;1.40;;;;;;;;;;5077533;28;20053;-82
2022/04/07 04:56:27;;;;;;;2.85;1.25;;;;;;;;;;5075211;28;20024;-81
2022/04/07 04:58:57;;;;;;;3.00;1.20;;;;;;;;;;5074393;28;20077;-82
2022/04/07 05:01:23;;;;;;;3.40;1.20;;;;;;;;;;5076458;28;20032;-82
2022/04/07 05:03:49;;;;;;;2.80;1.20;;;;;;;;;;5078205;28;20031;-81
2022/04/07 05:06:16;;;;;;;4.63;1.48;;;;;;;;;;5095487;28;20012;-81
2022/04/07 05:08:42;;;;;;;3.15;1.10;;;;;;;;;;5084819;28;20013;-82
2022/04/07 05:11:08;;;;;;;3.35;1.30;;;;;;;;;;5093449;28;20009;-82
2022/04/07 05:13:34;;;;;;;3.08;1.00;;;;;;;;;;5095528;28;20050;-81
2022/04/07 05:16:00;;;;;;;3.45;1.00;;;;;;;;;;5094122;28;20032;-82
2022/04/07 05:18:26;;;;;;;3.15;1.33;;;;;;;;;;5079080;28;20029;-83
2022/04/07 05:20:52;;;;;;;3.47;1.20;;;;;;;;;;5077755;28;20028;-83
2022/04/07 05:23:18;;;;;;;3.20;1.50;;;;;;;;;;5078133;28;20081;-82
2022/04/07 05:25:45;;;;;;;3.50;1.48;;;;;;;;;;5081404;28;20031;-82
2022/04/07 05:28:11;;;;;;;3.80;1.40;;;;;;;;;;5079306;28;20036;-82
2022/04/07 05:30:37;;;;;;;3.65;1.30;;;;;;;;;;5080673;28;20025;-82
2022/04/07 05:33:03;;;;;;;3.58;1.50;;;;;;;;;;5081424;28;20033;-82
2022/04/07 05:35:30;;;;;;;5.60;1.42;;;;;;;;;;5078379;28;20024;-82
2022/04/07 05:37:59;;;;;;;3.20;1.65;;;;;;;;;;5081598;28;20028;-82
2022/04/07 05:40:26;;;;;;;3.50;1.40;;;;;;;;;;5081345;28;20074;-82
2022/04/07 05:42:52;;;;;;;2.75;1.30;;;;;;;;;;5092393;28;20032;-81
2022/04/07 05:45:18;;;;;;;3.47;1.45;;;;;;;;;;5100033;28;20016;-81
2022/04/07 05:47:44;;;;;;;3.30;1.27;;;;;;;;;;5099936;28;20009;-81
2022/04/07 05:50:11;;;;;;;6.35;1.40;;;;;;;;;;5094522;28;20028;-81
2022/04/07 05:52:37;;;;;;;3.90;1.80;;;;;;;;;;5078799;28;20021;-82
2022/04/07 05:55:03;;;;;;;3.25;1.50;;;;;;;;;;5077869;28;20051;-83
2022/04/07 05:57:32;;;;;;;4.43;1.50;;;;;;;;;;5080648;28;20076;-83
2022/04/07 06:00:11;;;;;;;3.50;1.65;;;;;;;;;;5080650;28;20035;-82
2022/04/07 06:02:37;;;;;;;3.70;1.50;;;;;;;;;;5079667;28;20021;-82
2022/04/07 06:05:03;;;;;;;13.65;2.70;;;;;;;;;;5078922;28;20017;-83
2022/04/07 06:07:30;;;;;;;8.38;2.78;;;;;;;;;;5079440;28;20510;-83
2022/04/07 06:09:56;;;;;;;5.97;2.83;;;;;;;;;;5074494;28;20023;-83
2022/04/07 06:12:22;;;;;;;9.90;2.50;;;;;;;;;;5086417;28;20036;-82
2022/04/07 06:14:48;;;;;;;6.65;2.10;;;;;;;;;;5079983;28;20028;-83
2022/04/07 06:17:14;;;;;;;3.78;2.08;;;;;;;;;;5078718;28;20029;-82
2022/04/07 06:19:40;;;;;;;5.82;2.25;;;;;;;;;;5079434;28;20028;-83
2022/04/07 06:22:07;;;;;;;5.85;2.17;;;;;;;;;;5079068;28;20090;-83
2022/04/07 06:24:34;;;;;;;5.90;2.72;;;;;;;;;;5076764;28;20070;-83
2022/04/07 06:27:00;;;;;;;4.63;2.40;;;;;;;;;;5077403;28;20021;-83
2022/04/07 06:29:26;;;;;;;4.38;2.40;;;;;;;;;;5079733;28;20062;-84
2022/04/07 06:31:52;;;;;;;4.28;2.15;;;;;;;;;;5082071;28;20048;-83
2022/04/07 06:34:20;;;;;;;4.20;2.40;;;;;;;;;;5081271;28;20029;-83
2022/04/07 06:36:47;;;;;;;4.63;2.10;;;;;;;;;;5078072;28;20024;-83
2022/04/07 06:39:13;;;;;;;4.95;2.38;;;;;;;;;;5078325;28;20047;-83
2022/04/07 06:41:39;;;;;;;4.55;2.30;;;;;;;;;;5069799;28;20033;-84
2022/04/07 06:44:05;;;;;;;4.88;2.50;;;;;;;;;;5080750;28;20020;-84
2022/04/07 06:46:32;;;;;;;5.32;2.53;;;;;;;;;;5079876;28;20032;-84
2022/04/07 06:48:59;;;;;;;4.43;2.00;;;;;;;;;;5080216;28;20036;-84
2022/04/07 06:51:25;;;;;;;5.07;2.20;;;;;;;;;;5079705;28;20082;-84
2022/04/07 06:53:51;;;;;;;4.55;2.40;;;;;;;;;;5079816;28;20090;-84
2022/04/07 06:56:17;;;;;;;4.47;2.25;;;;;;;;;;5081893;28;20032;-84
2022/04/07 06:58:43;;;;;;;4.25;2.00;;;;;;;;;;5082675;28;20025;-84
2022/04/07 07:01:09;;;;;;;5.60;2.40;;;;;;;;;;5076219;28;20037;-84
2022/04/07 07:03:35;;;;;;;5.03;2.10;;;;;;;;;;5077499;28;20390;-84
2022/04/07 07:06:01;;;;;;;5.03;2.30;;;;;;;;;;5078300;28;20103;-84
2022/04/07 07:08:27;;;;;;;4.50;2.25;;;;;;;;;;5076253;28;20020;-84
2022/04/07 07:10:53;;;;;;;7.03;2.72;;;;;;;;;;5075031;28;20043;-82
2022/04/07 07:13:21;;;;;;;4.88;2.38;;;;;;;;;;5077120;28;20036;-84
2022/04/07 07:15:50;;;;;;;4.88;2.30;;;;;;;;;;5077385;28;20084;-84
2022/04/07 07:18:17;;;;;;;5.18;2.60;;;;;;;;;;5075964;28;20060;-84
2022/04/07 07:20:43;;;;;;;11.15;3.05;;;;;;;;;;5076493;28;20024;-84
2022/04/07 07:23:09;;;;;;;5.05;2.80;;;;;;;;;;5076699;28;20438;-84
2022/04/07 07:25:35;;;;;;;4.35;2.30;;;;;;;;;;5076298;28;20028;-84
2022/04/07 07:28:02;;;;;;;6.28;2.63;;;;;;;;;;5077265;28;20037;-83
2022/04/07 07:30:28;;;;;;;6.05;2.20;;;;;;;;;;5075740;28;20023;-85
2022/04/07 07:32:54;;;;;;;5.85;2.38;;;;;;;;;;5076109;28;20036;-84
2022/04/07 07:35:21;;;;;;;4.85;2.25;;;;;;;;;;5075995;28;20024;-84
2022/04/07 07:37:53;;;;;;;3.75;2.05;;;;;;;;;;5059883;28;20032;-84
2022/04/07 07:40:21;;;;;;;;;;;;;;;;;;5059696;28;20048;-83
2022/04/07 07:42:49;;;;;;;4.00;1.90;;;;;;;;;;5068822;28;19912;-85
2022/04/07 07:45:17;;;;;;;4.13;2.05;;;;;;;;;;5075587;28;20025;-84
2022/04/07 07:47:43;;;;;;;3.67;1.58;;;;;;;;;;5076201;28;20024;-84
2022/04/07 07:50:09;;;;;;;4.70;1.73;;;;;;;;;;5073633;28;20032;-83
2022/04/07 07:52:35;;;;;;;3.83;1.70;;;;;;;;;;5075410;28;20052;-84
2022/04/07 07:55:01;;;;;;;4.30;2.17;;;;;;;;;;5074146;28;20032;-84
2022/04/07 07:57:28;;;;;;;3.72;1.90;;;;;;;;;;5076444;28;20024;-84
2022/04/07 07:59:54;;;;;;;5.38;1.80;;;;;;;;;;5076893;28;20394;-83
2022/04/07 08:02:20;;;;;;;4.50;1.80;;;;;;;;;;5077980;28;20032;-83
2022/04/07 08:04:46;;;;;;;4.88;2.30;;;;;;;;;;5078306;28;20012;-83
2022/04/07 08:07:13;;;;;;;7.30;2.35;;;;;;;;;;5072425;28;20020;-83
2022/04/07 08:09:39;;;;;;;5.78;2.40;;;;;;;;;;5077835;28;20029;-84
2022/04/07 08:12:05;;;;;;;5.10;2.33;;;;;;;;;;5079481;28;20025;-83
2022/04/07 08:14:31;;;;;;;4.90;2.13;;;;;;;;;;5076594;28;20028;-83
2022/04/07 08:16:57;;;;;;;5.32;2.25;;;;;;;;;;5078585;28;20031;-83
2022/04/07 08:19:23;;;;;;;5.10;2.50;;;;;;;;;;5078174;28;20029;-83
2022/04/07 08:21:49;;;;;;;4.60;2.30;;;;;;;;;;5076832;28;20047;-83
2022/04/07 08:24:16;;;;;;;4.80;2.42;;;;;;;;;;5076515;28;20730;-85
2022/04/07 08:26:43;;;;;;;5.05;2.45;;;;;;;;;;5076330;28;20025;-83
2022/04/07 08:29:09;;;;;;;4.63;2.25;;;;;;;;;;5078085;28;20027;-82
2022/04/07 08:31:35;;;;;;;4.30;1.92;;;;;;;;;;5079516;28;20025;-83
2022/04/07 08:34:01;;;;;;;3.80;2.10;;;;;;;;;;5080373;28;20050;-83
2022/04/07 08:36:27;;;;;;;5.22;2.13;;;;;;;;;;5079562;28;20056;-83
2022/04/07 08:38:53;;;;;;;3.92;2.03;;;;;;;;;;5080383;28;20036;-83
2022/04/07 08:41:19;;;;;;;3.67;2.05;;;;;;;;;;5077764;28;20029;-83
2022/04/07 08:43:45;;;;;;;4.55;1.95;;;;;;;;;;5077852;28;20024;-83
2022/04/07 08:46:13;;;;;;;4.30;2.50;;;;;;;;;;5077623;28;20036;-84
2022/04/07 08:48:43;;;;;;;5.18;2.28;;;;;;;;;;5076251;28;20024;-83
2022/04/07 08:51:10;;;;;;;4.90;2.15;;;;;;;;;;5078730;28;20028;-83
2022/04/07 08:53:37;;;;;;;6.13;2.40;;;;;;;;;;5077102;28;20024;-85
2022/04/07 08:56:04;;;;;;;4.20;2.30;;;;;;;;;;5076858;28;20382;-84
2022/04/07 08:58:30;;;;;;;6.30;2.63;;;;;;;;;;5076349;28;20039;-84
2022/04/07 09:00:56;;;;;;;8.25;4.10;;;;;;;;;;5076613;28;20460;-84
2022/04/07 09:03:23;;;;;;;5.25;3.25;;;;;;;;;;5076126;28;20048;-84
2022/04/07 09:05:55;;;;;;;5.18;3.28;;;;;;;;;;5077615;28;20029;-84
2022/04/07 09:08:21;;;;;;;6.25;3.33;;;;;;;;;;5075999;28;20040;-84
2022/04/07 09:10:57;;;;;;;5.97;3.30;;;;;;;;;;5075610;28;20059;-84
2022/04/07 09:13:23;;;;;;;4.97;2.72;;;;;;;;;;5086093;28;20054;-83
2022/04/07 09:15:50;;;;;;;4.63;2.95;;;;;;;;;;5089381;28;20056;-82
2022/04/07 09:18:23;;;;;;;7.03;2.88;;;;;;;;;;5086212;28;20032;-83
2022/04/07 09:20:49;;;;;;;5.20;2.58;;;;;;;;;;5079302;28;20029;-85
2022/04/07 09:23:17;;;;;;;5.70;2.75;;;;;;;;;;5076908;28;20046;-83
2022/04/07 09:25:49;;;;;;;3.92;2.05;;;;;;;;;;5076372;28;20043;-85
2022/04/07 09:28:25;;;;;;;4.32;1.90;;;;;;;;;;5072218;28;20561;-85
2022/04/07 09:30:51;;;;;;;3.97;1.90;;;;;;;;;;5069365;28;20033;-84
2022/04/07 09:33:21;;;;;;;3.97;2.00;;;;;;;;;;5076687;28;20491;-85
2022/04/07 09:36:00;;;;;;;5.30;2.30;;;;;;;;;;5076942;28;20052;-85
2022/04/07 09:38:27;;;;;;;4.57;2.40;;;;;;;;;;5077331;28;20032;-85
2022/04/07 09:40:53;;;;;;;4.70;2.50;;;;;;;;;;5076610;28;20066;-84
2022/04/07 09:43:21;;;;;;;4.75;2.92;;;;;;;;;;5076128;28;20031;-85
2022/04/07 09:45:47;;;;;;;5.30;2.47;;;;;;;;;;5075698;28;20032;-83
2022/04/07 09:48:20;;;;;;;5.07;2.50;;;;;;;;;;5077595;28;20013;-85
2022/04/07 09:51:02;;;;;;;4.85;2.65;;;;;;;;;;5077331;28;20029;-86
2022/04/07 09:53:36;;;;;;;4.93;2.80;;;;;;;;;;5076256;28;20429;-83
2022/04/07 09:56:02;;;;;;;4.10;2.42;;;;;;;;;;5063238;28;20071;-84
2022/04/07 09:58:29;;;;;;;4.15;2.53;;;;;;;;;;5076431;28;20275;-85
2022/04/07 10:00:56;;;;;;;4.35;2.47;;;;;;;;;;5076773;28;20398;-84
2022/04/07 10:03:22;;;;;;;5.25;2.92;;;;;;;;;;5077428;28;20029;-82
2022/04/07 10:05:49;;;;;;;4.20;2.30;;;;;;;;;;5076760;28;20674;-83
2022/04/07 10:08:19;;;;;;;5.32;2.60;;;;;;;;;;5072302;28;20020;-85
2022/04/07 10:10:46;;;;;;;4.43;2.70;;;;;;;;;;5079429;28;20020;-82
2022/04/07 10:13:13;;;;;;;6.40;2.80;;;;;;;;;;5082420;28;20475;-82
2022/04/07 10:15:39;;;;;;;4.50;2.30;;;;;;;;;;5079801;28;20016;-81
2022/04/07 10:18:09;;;;;;;5.65;3.20;;;;;;;;;;5079403;28;20452;-82
2022/04/07 10:20:36;;;;;;;4.50;2.53;;;;;;;;;;5076789;28;20032;-83
2022/04/07 10:23:02;;;;;;;3.95;2.10;;;;;;;;;;5070559;28;20032;-82
2022/04/07 10:25:28;;;;;;;4.22;2.22;;;;;;;;;;5077849;28;20055;-82
2022/04/07 10:27:55;;;;;;;3.70;2.10;;;;;;;;;;5080764;28;20028;-82
2022/04/07 10:30:21;;;;;;;3.65;2.08;;;;;;;;;;5079437;28;20031;-84
2022/04/07 10:32:49;;;;;;;4.47;2.10;;;;;;;;;;5079642;28;20530;-83
2022/04/07 10:35:36;;;;;;;3.63;1.70;;;;;;;;;;5079613;28;20024;-84
2022/04/07 10:38:11;;;;;;;4.50;1.80;;;;;;;;;;5079192;28;20021;-83
2022/04/07 10:40:52;;;;;;;4.35;1.73;;;;;;;;;;5079573;28;20120;-83
2022/04/07 10:43:19;;;;;;;3.78;1.70;;;;;;;;;;5079618;28;20078;-84
2022/04/07 10:46:14;;;;;;;3.55;1.90;;;;;;;;;;5078522;28;20067;-83
2022/04/07 10:48:51;;;;;;;3.55;1.85;;;;;;;;;;5069105;28;20062;-83
2022/04/07 10:51:18;;;;;;;4.20;2.00;;;;;;;;;;5077048;28;20029;-82
2022/04/07 10:53:53;;;;;;;4.72;1.73;;;;;;;;;;5080483;28;20110;-84
2022/04/07 10:56:31;;;;;;;6.93;2.65;;;;;;;;;;5068598;28;20041;-83
2022/04/07 10:58:57;;;;;;;4.53;1.70;;;;;;;;;;5077014;28;20035;-84
2022/04/07 11:01:27;;;;;;;3.75;1.80;;;;;;;;;;5076860;28;20476;-85
2022/04/07 11:04:11;;;;;;;3.33;1.60;;;;;;;;;;5070819;28;20493;-83
2022/04/07 11:06:37;;;;;;;5.65;1.70;;;;;;;;;;5079021;28;20116;-83
2022/04/07 11:09:14;;;;;;;3.90;1.90;;;;;;;;;;5078064;28;20055;-84
2022/04/07 11:11:51;;;;;;;2.90;1.33;;;;;;;;;;5077898;28;20029;-82
2022/04/07 11:14:17;;;;;;;3.65;1.70;;;;;;;;;;5078570;28;20028;-83
2022/04/07 11:16:44;;;;;;;3.25;0.93;;;;;;;;;;5073680;28;20031;-85
2022/04/07 11:19:25;;;;;;;4.32;1.20;;;;;;;;;;5079303;28;20060;-82
2022/04/07 11:21:52;;;;;;;2.78;1.15;;;;;;;;;;5077556;28;20104;-84
2022/04/07 11:24:28;;;;;;;2.53;1.10;;;;;;;;;;5078898;28;20037;-84
2022/04/07 11:26:54;;;;;;;2.47;1.05;;;;;;;;;;5078673;28;20013;-83
2022/04/07 11:29:33;;;;;;;3.80;1.48;;;;;;;;;;5078074;28;20027;-83
2022/04/07 11:32:08;;;;;;;3.97;1.63;;;;;;;;;;5092859;28;20028;-83
2022/04/07 11:34:38;;;;;;;3.70;1.23;;;;;;;;;;5070262;28;20025;-85
2022/04/07 11:37:22;;;;;;;3.35;1.23;;;;;;;;;;5076234;28;20056;-84
2022/04/07 11:39:50;;;;;;;4.90;1.38;;;;;;;;;;5072789;28;20032;-84
2022/04/07 11:42:17;;;;;;;4.03;1.10;;;;;;;;;;5074963;28;20116;-83
2022/04/07 11:44:45;;;;;;;4.03;1.60;;;;;;;;;;5075651;28;20017;-83
2022/04/07 11:47:29;;;;;;;3.70;1.27;;;;;;;;;;5077675;28;20655;-82
2022/04/07 11:49:55;;;;;;;3.38;1.50;;;;;;;;;;5076771;28;20024;-82
2022/04/07 11:52:28;;;;;;;2.78;1.13;;;;;;;;;;5076951;28;20035;-85
2022/04/07 11:54:55;;;;;;;2.63;1.10;;;;;;;;;;5078123;28;20111;-83
2022/04/07 11:57:23;;;;;;;3.25;1.20;;;;;;;;;;5075479;28;20047;-83
2022/04/07 11:59:49;;;;;;;3.92;1.20;;;;;;;;;;5077834;28;20021;-83
2022/04/07 12:02:22;;;;;;;5.95;1.52;;;;;;;;;;5077806;28;20048;-84
2022/04/07 12:04:54;;;;;;;2.83;1.13;;;;;;;;;;5076452;28;20021;-85
2022/04/07 12:07:21;;;;;;;2.95;1.13;;;;;;;;;;5076967;28;20443;-84
2022/04/07 12:09:47;;;;;;;2.78;1.20;;;;;;;;;;5075140;28;20017;-84
2022/04/07 12:12:13;;;;;;;3.10;1.20;;;;;;;;;;5076817;28;20032;-84
2022/04/07 12:14:42;;;;;;;5.00;1.30;;;;;;;;;;5077045;28;20562;-84
2022/04/07 12:17:11;;;;;;;2.83;0.98;;;;;;;;;;5076455;28;20044;-83
2022/04/07 12:19:47;;;;;;;3.08;1.05;;;;;;;;;;5077211;28;20078;-83
2022/04/07 12:22:13;;;;;;;2.70;0.90;;;;;;;;;;5076753;28;20076;-83
2022/04/07 12:24:40;;;;;;;3.08;1.02;;;;;;;;;;5075687;28;20108;-83
2022/04/07 12:27:08;;;;;;;3.05;0.88;;;;;;;;;;5075894;28;20041;-83
2022/04/07 12:29:34;;;;;;;2.53;0.85;;;;;;;;;;5077659;28;20028;-84
2022/04/07 12:32:06;;;;;;;2.55;0.80;;;;;;;;;;5076842;28;20058;-84
2022/04/07 12:34:33;;;;;;;2.72;0.82;;;;;;;;;;5078392;28;20028;-85
2022/04/07 12:36:59;;;;;;;2.83;0.93;;;;;;;;;;5079455;28;20036;-84
2022/04/07 12:39:31;;;;;;;2.75;0.60;;;;;;;;;;5077368;28;20029;-85
2022/04/07 12:42:03;;;;;;;1.52;0.50;;;;;;;;;;5077380;28;20028;-87
2022/04/07 12:44:33;;;;;;;3.38;0.90;;;;;;;;;;5063267;28;20083;-84
2022/04/07 12:47:02;;;;;;;2.58;0.80;;;;;;;;;;5077264;28;20248;-85
2022/04/07 12:49:31;;;;;;;1.73;0.60;;;;;;;;;;5077703;28;20115;-85
2022/04/07 12:52:16;;;;;;;1.88;0.70;;;;;;;;;;5074802;28;20025;-85
2022/04/07 12:55:01;;;;;;;1.77;0.65;;;;;;;;;;5076041;28;20036;-84
2022/04/07 12:57:33;;;;;;;2.28;0.82;;;;;;;;;;5077103;28;20029;-84
2022/04/07 13:00:06;;;;;;;1.88;0.70;;;;;;;;;;5076515;28;20028;-84
2022/04/07 13:02:41;;;;;;;2.20;0.60;;;;;;;;;;5076375;28;20032;-84
2022/04/07 13:05:08;;;;;;;3.15;1.35;;;;;;;;;;5078290;28;20028;-83
2022/04/07 13:07:34;;;;;;;2.30;0.77;;;;;;;;;;5076159;28;20188;-83
2022/04/07 13:10:00;;;;;;;4.43;3.03;;;;;;;;;;5076367;28;20028;-82
2022/04/07 13:12:26;;;;;;;3.05;0.80;;;;;;;;;;5074723;28;20028;-82
2022/04/07 13:14:52;;;;;;;1.88;0.70;;;;;;;;;;5074882;28;20048;-83
2022/04/07 13:17:18;;;;;;;2.65;0.60;;;;;;;;;;5089014;28;20040;-81
2022/04/07 13:19:44;;;;;;;2.42;0.73;;;;;;;;;;5095458;28;20025;-81
2022/04/07 13:22:10;;;;;;;2.47;0.70;;;;;;;;;;5095492;28;20049;-80
2022/04/07 13:24:36;;;;;;;2.10;0.80;;;;;;;;;;5096306;28;20031;-80
2022/04/07 13:27:02;;;;;;;1.23;0.50;;;;;;;;;;5095178;28;20040;-82
2022/04/07 13:29:30;;;;;;;2.17;0.60;;;;;;;;;;5091118;28;20092;-83
2022/04/07 13:31:56;;;;;;;2.20;0.70;;;;;;;;;;5078620;28;20108;-85
2022/04/07 13:34:22;;;;;;;2.75;0.70;;;;;;;;;;5075977;28;20032;-82
2022/04/07 13:36:48;;;;;;;2.85;0.90;;;;;;;;;;5074556;28;20035;-83
2022/04/07 13:39:15;;;;;;;3.45;0.70;;;;;;;;;;5066798;28;20036;-83
2022/04/07 13:41:41;;;;;;;3.92;0.85;;;;;;;;;;5076339;28;20029;-82
2022/04/07 13:44:07;;;;;;;1.70;0.60;;;;;;;;;;5078481;28;20095;-82
2022/04/07 13:46:33;;;;;;;1.83;0.73;;;;;;;;;;5080063;28;20028;-83
2022/04/07 13:48:59;;;;;;;2.50;0.77;;;;;;;;;;5084518;28;20028;-82
2022/04/07 13:51:25;;;;;;;2.28;0.70;;;;;;;;;;5081491;28;20021;-82
2022/04/07 13:53:51;;;;;;;2.13;0.80;;;;;;;;;;5082385;28;20509;-82
2022/04/07 13:56:17;;;;;;;2.38;0.50;;;;;;;;;;5085552;28;20179;-81
2022/04/07 13:58:43;;;;;;;2.10;0.70;;;;;;;;;;5099112;28;20016;-81
2022/04/07 14:01:09;;;;;;;5.13;2.15;;;;;;;;;;5098914;28;20095;-79
2022/04/07 14:03:38;;;;;;;1.75;0.40;;;;;;;;;;5099414;28;20039;-80
2022/04/07 14:06:04;;;;;;;1.60;0.55;;;;;;;;;;5096831;28;20024;-84
2022/04/07 14:08:30;;;;;;;2.63;0.90;;;;;;;;;;5081930;28;20048;-80
2022/04/07 14:10:56;;;;;;;2.83;0.90;;;;;;;;;;5083822;28;20020;-80
2022/04/07 14:13:23;;;;;;;1.58;0.52;;;;;;;;;;5089849;28;20036;-82
2022/04/07 14:15:50;;;;;;;1.55;0.70;;;;;;;;;;5090651;28;20323;-81
2022/04/07 14:18:16;;;;;;;2.15;0.70;;;;;;;;;;5083485;28;20051;-82
2022/04/07 14:20:43;;;;;;;2.90;0.60;;;;;;;;;;5079794;28;20502;-82
2022/04/07 14:23:12;;;;;;;1.85;0.60;;;;;;;;;;5079237;28;20122;-82
2022/04/07 14:25:39;;;;;;;2.10;0.60;;;;;;;;;;5079269;28;20025;-83
2022/04/07 14:28:05;;;;;;;3.72;0.65;;;;;;;;;;5076343;28;20044;-84
2022/04/07 14:30:31;;;;;;;1.05;0.50;;;;;;;;;;5078373;28;20090;-84
2022/04/07 14:32:58;;;;;;;2.80;0.70;;;;;;;;;;5079307;28;20044;-83
2022/04/07 14:35:24;;;;;;;2.25;0.82;;;;;;;;;;5077678;28;20036;-83
2022/04/07 14:37:52;;;;;;;2.30;0.52;;;;;;;;;;5078642;28;20433;-83
2022/04/07 14:40:18;;;;;;;2.35;0.70;;;;;;;;;;5076725;28;20036;-84
2022/04/07 14:42:45;;;;;;;2.00;0.68;;;;;;;;;;5063680;28;20108;-84
2022/04/07 14:45:11;;;;;;;3.05;0.60;;;;;;;;;;5076803;28;20021;-83